sensor_id;sensor_type;location;lat;lon;timestamp;P1;durP1;ratioP1;P2;durP2;ratioP2
583;SDS011;27024;54.068;12.116;2023-02-28T00:01:27;6.30;;;3.20;;
583;SDS011;27024;54.068;12.116;2023-02-28T00:03:55;7.50;;;3.42;;
583;SDS011;27024;54.068;12.116;2023-02-28T00:06:22;9.82;;;3.65;;
583;SDS011;27024;54.068;12.116;2023-02-28T00:08:50;7.50;;;3.17;;
583;SDS011;27024;54.068;12.116;2023-02-28T00:11:17;8.25;;;3.35;;
583;SDS011;27024;54.068;12.116;2023-02-28T00:13:44;6.60;;;3.20;;
583;SDS011;27024;54.068;12.116;2023-02-28T00:16:16;6.80;;;2.67;;
583;SDS011;27024;54.068;12.116;2023-02-28T00:18:45;8.07;;;3.20;;
583;SDS011;27024;54.068;12.116;2023-02-28T00:21:14;6.63;;;3.10;;
583;SDS011;27024;54.068;12.116;2023-02-28T00:23:41;8.10;;;2.88;;
583;SDS011;27024;54.068;12.116;2023-02-28T00:26:09;12.68;;;3.72;;
583;SDS011;27024;54.068;12.116;2023-02-28T00:28:55;8.77;;;3.53;;
583;SDS011;27024;54.068;12.116;2023-02-28T00:31:22;7.63;;;3.20;;
583;SDS011;27024;54.068;12.116;2023-02-28T00:33:49;7.68;;;3.42;;
583;SDS011;27024;54.068;12.116;2023-02-28T00:36:17;8.10;;;3.33;;
583;SDS011;27024;54.068;12.116;2023-02-28T00:38:43;7.38;;;3.45;;
583;SDS011;27024;54.068;12.116;2023-02-28T00:41:10;6.90;;;3.25;;
583;SDS011;27024;54.068;12.116;2023-02-28T00:43:38;9.48;;;3.03;;
583;SDS011;27024;54.068;12.116;2023-02-28T00:46:06;9.52;;;3.58;;
583;SDS011;27024;54.068;12.116;2023-02-28T00:48:33;6.35;;;3.08;;
583;SDS011;27024;54.068;12.116;2023-02-28T00:51:00;8.50;;;4.18;;
583;SDS011;27024;54.068;12.116;2023-02-28T00:53:27;9.55;;;3.30;;
583;SDS011;27024;54.068;12.116;2023-02-28T00:55:55;9.38;;;3.28;;
583;SDS011;27024;54.068;12.116;2023-02-28T00:58:22;7.45;;;4.45;;
583;SDS011;27024;54.068;12.116;2023-02-28T01:00:49;7.68;;;2.72;;
583;SDS011;27024;54.068;12.116;2023-02-28T01:03:17;9.95;;;3.90;;
583;SDS011;27024;54.068;12.116;2023-02-28T01:05:45;9.55;;;3.78;;
583;SDS011;27024;54.068;12.116;2023-02-28T01:08:12;8.90;;;3.67;;
583;SDS011;27024;54.068;12.116;2023-02-28T01:10:40;7.38;;;3.25;;
583;SDS011;27024;54.068;12.116;2023-02-28T01:13:07;8.25;;;3.50;;
583;SDS011;27024;54.068;12.116;2023-02-28T01:15:34;7.53;;;3.47;;
583;SDS011;27024;54.068;12.116;2023-02-28T01:18:01;9.07;;;3.75;;
583;SDS011;27024;54.068;12.116;2023-02-28T01:20:28;9.60;;;3.50;;
583;SDS011;27024;54.068;12.116;2023-02-28T01:22:54;7.13;;;3.45;;
583;SDS011;27024;54.068;12.116;2023-02-28T01:25:21;8.43;;;3.10;;
583;SDS011;27024;54.068;12.116;2023-02-28T01:27:49;10.70;;;3.33;;
583;SDS011;27024;54.068;12.116;2023-02-28T01:30:16;7.47;;;3.50;;
583;SDS011;27024;54.068;12.116;2023-02-28T01:32:43;8.77;;;3.10;;
583;SDS011;27024;54.068;12.116;2023-02-28T01:35:09;10.63;;;3.65;;
583;SDS011;27024;54.068;12.116;2023-02-28T01:37:36;7.85;;;3.78;;
583;SDS011;27024;54.068;12.116;2023-02-28T01:40:03;7.88;;;3.17;;
583;SDS011;27024;54.068;12.116;2023-02-28T01:42:30;7.63;;;3.72;;
583;SDS011;27024;54.068;12.116;2023-02-28T01:47:28;9.20;;;4.13;;
583;SDS011;27024;54.068;12.116;2023-02-28T01:50:01;7.45;;;3.00;;
583;SDS011;27024;54.068;12.116;2023-02-28T01:52:31;7.80;;;3.38;;
583;SDS011;27024;54.068;12.116;2023-02-28T01:54:59;6.82;;;2.88;;
583;SDS011;27024;54.068;12.116;2023-02-28T01:57:29;8.90;;;3.25;;
583;SDS011;27024;54.068;12.116;2023-02-28T02:02:36;6.78;;;3.67;;
583;SDS011;27024;54.068;12.116;2023-02-28T02:05:05;6.68;;;3.00;;
583;SDS011;27024;54.068;12.116;2023-02-28T02:07:40;7.30;;;3.30;;
583;SDS011;27024;54.068;12.116;2023-02-28T02:16:23;7.70;;;3.05;;
583;SDS011;27024;54.068;12.116;2023-02-28T02:18:43;8.05;;;3.38;;
583;SDS011;27024;54.068;12.116;2023-02-28T02:37:08;9.63;;;3.80;;
583;SDS011;27024;54.068;12.116;2023-02-28T02:39:48;9.52;;;3.60;;
583;SDS011;27024;54.068;12.116;2023-02-28T02:42:28;8.18;;;3.60;;
583;SDS011;27024;54.068;12.116;2023-02-28T02:45:19;8.15;;;3.22;;
583;SDS011;27024;54.068;12.116;2023-02-28T02:47:51;8.82;;;3.47;;
583;SDS011;27024;54.068;12.116;2023-02-28T02:50:26;9.63;;;4.30;;
583;SDS011;27024;54.068;12.116;2023-02-28T02:52:58;7.88;;;3.97;;
583;SDS011;27024;54.068;12.116;2023-02-28T02:55:27;6.63;;;4.10;;
583;SDS011;27024;54.068;12.116;2023-02-28T02:58:00;7.68;;;3.72;;
583;SDS011;27024;54.068;12.116;2023-02-28T03:00:35;10.18;;;5.25;;
583;SDS011;27024;54.068;12.116;2023-02-28T03:03:09;7.13;;;4.30;;
583;SDS011;27024;54.068;12.116;2023-02-28T03:05:50;8.13;;;3.83;;
583;SDS011;27024;54.068;12.116;2023-02-28T03:08:17;6.47;;;3.83;;
583;SDS011;27024;54.068;12.116;2023-02-28T03:10:45;7.70;;;3.90;;
583;SDS011;27024;54.068;12.116;2023-02-28T03:15:48;9.57;;;4.18;;
583;SDS011;27024;54.068;12.116;2023-02-28T03:21:34;9.38;;;4.30;;
583;SDS011;27024;54.068;12.116;2023-02-28T03:26:42;8.60;;;4.35;;
583;SDS011;27024;54.068;12.116;2023-02-28T03:29:24;10.43;;;4.90;;
583;SDS011;27024;54.068;12.116;2023-02-28T03:32:08;10.63;;;4.85;;
583;SDS011;27024;54.068;12.116;2023-02-28T03:37:38;10.40;;;4.60;;
583;SDS011;27024;54.068;12.116;2023-02-28T03:40:09;6.90;;;3.92;;
583;SDS011;27024;54.068;12.116;2023-02-28T03:42:41;10.20;;;4.88;;
583;SDS011;27024;54.068;12.116;2023-02-28T03:45:21;11.07;;;6.45;;
583;SDS011;27024;54.068;12.116;2023-02-28T03:50:24;13.82;;;4.55;;
583;SDS011;27024;54.068;12.116;2023-02-28T03:56:16;13.27;;;4.70;;
583;SDS011;27024;54.068;12.116;2023-02-28T04:01:54;10.20;;;4.72;;
583;SDS011;27024;54.068;12.116;2023-02-28T04:04:14;11.18;;;5.55;;
583;SDS011;27024;54.068;12.116;2023-02-28T04:06:42;13.15;;;6.85;;
583;SDS011;27024;54.068;12.116;2023-02-28T04:09:11;12.57;;;6.82;;
583;SDS011;27024;54.068;12.116;2023-02-28T04:11:41;13.35;;;6.70;;
583;SDS011;27024;54.068;12.116;2023-02-28T04:14:10;12.05;;;5.88;;
583;SDS011;27024;54.068;12.116;2023-02-28T04:16:39;12.57;;;6.97;;
583;SDS011;27024;54.068;12.116;2023-02-28T04:19:08;12.25;;;5.85;;
583;SDS011;27024;54.068;12.116;2023-02-28T04:21:37;10.88;;;6.18;;
583;SDS011;27024;54.068;12.116;2023-02-28T04:24:09;13.95;;;6.43;;
583;SDS011;27024;54.068;12.116;2023-02-28T04:26:41;11.93;;;5.88;;
583;SDS011;27024;54.068;12.116;2023-02-28T04:29:11;12.27;;;6.07;;
583;SDS011;27024;54.068;12.116;2023-02-28T04:31:39;10.00;;;5.10;;
583;SDS011;27024;54.068;12.116;2023-02-28T04:34:07;12.10;;;5.78;;
583;SDS011;27024;54.068;12.116;2023-02-28T04:36:34;10.38;;;6.05;;
583;SDS011;27024;54.068;12.116;2023-02-28T04:39:01;11.02;;;5.80;;
583;SDS011;27024;54.068;12.116;2023-02-28T04:41:28;11.25;;;5.65;;
583;SDS011;27024;54.068;12.116;2023-02-28T04:43:58;10.93;;;5.50;;
583;SDS011;27024;54.068;12.116;2023-02-28T04:46:25;13.82;;;6.05;;
583;SDS011;27024;54.068;12.116;2023-02-28T04:48:52;12.05;;;5.72;;
583;SDS011;27024;54.068;12.116;2023-02-28T04:51:20;11.05;;;5.53;;
583;SDS011;27024;54.068;12.116;2023-02-28T04:53:47;13.15;;;5.88;;
583;SDS011;27024;54.068;12.116;2023-02-28T04:56:15;10.07;;;5.07;;
583;SDS011;27024;54.068;12.116;2023-02-28T04:58:44;11.18;;;5.15;;
583;SDS011;27024;54.068;12.116;2023-02-28T05:01:19;11.43;;;5.15;;
583;SDS011;27024;54.068;12.116;2023-02-28T05:03:48;11.40;;;5.07;;
583;SDS011;27024;54.068;12.116;2023-02-28T05:06:15;9.35;;;5.18;;
583;SDS011;27024;54.068;12.116;2023-02-28T05:08:43;10.13;;;5.80;;
583;SDS011;27024;54.068;12.116;2023-02-28T05:11:14;12.05;;;5.45;;
583;SDS011;27024;54.068;12.116;2023-02-28T05:13:41;11.63;;;6.00;;
583;SDS011;27024;54.068;12.116;2023-02-28T05:16:08;14.18;;;6.22;;
583;SDS011;27024;54.068;12.116;2023-02-28T05:18:35;12.25;;;6.10;;
583;SDS011;27024;54.068;12.116;2023-02-28T05:21:02;13.68;;;6.05;;
583;SDS011;27024;54.068;12.116;2023-02-28T05:23:29;12.40;;;5.88;;
583;SDS011;27024;54.068;12.116;2023-02-28T05:25:56;14.02;;;6.93;;
583;SDS011;27024;54.068;12.116;2023-02-28T05:28:23;12.25;;;5.90;;
583;SDS011;27024;54.068;12.116;2023-02-28T05:30:50;12.63;;;6.72;;
583;SDS011;27024;54.068;12.116;2023-02-28T05:33:17;13.68;;;6.00;;
583;SDS011;27024;54.068;12.116;2023-02-28T05:35:45;12.02;;;6.05;;
583;SDS011;27024;54.068;12.116;2023-02-28T05:38:12;13.27;;;5.45;;
583;SDS011;27024;54.068;12.116;2023-02-28T05:40:39;15.00;;;6.18;;
583;SDS011;27024;54.068;12.116;2023-02-28T05:43:07;9.77;;;5.13;;
583;SDS011;27024;54.068;12.116;2023-02-28T05:45:37;11.90;;;6.22;;
583;SDS011;27024;54.068;12.116;2023-02-28T05:48:04;10.23;;;5.60;;
583;SDS011;27024;54.068;12.116;2023-02-28T05:50:31;12.23;;;5.88;;
583;SDS011;27024;54.068;12.116;2023-02-28T05:52:57;11.13;;;5.95;;
583;SDS011;27024;54.068;12.116;2023-02-28T05:55:24;12.55;;;5.60;;
583;SDS011;27024;54.068;12.116;2023-02-28T05:57:51;10.38;;;5.25;;
583;SDS011;27024;54.068;12.116;2023-02-28T06:00:18;11.77;;;5.50;;
583;SDS011;27024;54.068;12.116;2023-02-28T06:02:45;9.68;;;4.82;;
583;SDS011;27024;54.068;12.116;2023-02-28T06:05:13;11.25;;;5.75;;
583;SDS011;27024;54.068;12.116;2023-02-28T06:07:42;11.70;;;5.60;;
583;SDS011;27024;54.068;12.116;2023-02-28T06:10:10;13.77;;;5.78;;
583;SDS011;27024;54.068;12.116;2023-02-28T06:12:38;12.57;;;5.53;;
583;SDS011;27024;54.068;12.116;2023-02-28T06:15:05;10.60;;;5.90;;
583;SDS011;27024;54.068;12.116;2023-02-28T06:17:33;13.07;;;6.90;;
583;SDS011;27024;54.068;12.116;2023-02-28T06:20:00;14.88;;;7.20;;
583;SDS011;27024;54.068;12.116;2023-02-28T06:22:26;12.45;;;5.95;;
583;SDS011;27024;54.068;12.116;2023-02-28T06:24:53;10.75;;;6.18;;
583;SDS011;27024;54.068;12.116;2023-02-28T06:27:21;13.68;;;5.95;;
583;SDS011;27024;54.068;12.116;2023-02-28T06:29:48;13.38;;;5.90;;
583;SDS011;27024;54.068;12.116;2023-02-28T06:32:15;12.73;;;5.88;;
583;SDS011;27024;54.068;12.116;2023-02-28T06:34:41;13.05;;;6.00;;
583;SDS011;27024;54.068;12.116;2023-02-28T06:37:08;10.30;;;5.72;;
583;SDS011;27024;54.068;12.116;2023-02-28T06:39:35;10.23;;;6.10;;
583;SDS011;27024;54.068;12.116;2023-02-28T06:42:02;13.10;;;5.70;;
583;SDS011;27024;54.068;12.116;2023-02-28T06:44:29;12.10;;;6.18;;
583;SDS011;27024;54.068;12.116;2023-02-28T06:49:30;13.02;;;4.93;;
583;SDS011;27024;54.068;12.116;2023-02-28T06:51:59;11.80;;;5.70;;
583;SDS011;27024;54.068;12.116;2023-02-28T06:54:25;12.63;;;5.43;;
583;SDS011;27024;54.068;12.116;2023-02-28T06:56:53;13.77;;;5.95;;
583;SDS011;27024;54.068;12.116;2023-02-28T06:59:20;11.32;;;6.45;;
583;SDS011;27024;54.068;12.116;2023-02-28T07:01:47;12.82;;;5.43;;
583;SDS011;27024;54.068;12.116;2023-02-28T07:04:15;12.38;;;6.47;;
583;SDS011;27024;54.068;12.116;2023-02-28T07:06:42;12.50;;;5.88;;
583;SDS011;27024;54.068;12.116;2023-02-28T07:09:10;13.85;;;6.90;;
583;SDS011;27024;54.068;12.116;2023-02-28T07:11:37;11.98;;;6.57;;
583;SDS011;27024;54.068;12.116;2023-02-28T07:14:04;12.50;;;6.13;;
583;SDS011;27024;54.068;12.116;2023-02-28T07:16:30;13.50;;;5.55;;
583;SDS011;27024;54.068;12.116;2023-02-28T07:18:57;12.68;;;5.50;;
583;SDS011;27024;54.068;12.116;2023-02-28T07:21:24;11.85;;;5.90;;
583;SDS011;27024;54.068;12.116;2023-02-28T07:23:51;12.98;;;5.38;;
583;SDS011;27024;54.068;12.116;2023-02-28T07:26:19;9.00;;;5.30;;
583;SDS011;27024;54.068;12.116;2023-02-28T07:28:46;11.73;;;5.53;;
583;SDS011;27024;54.068;12.116;2023-02-28T07:31:14;11.13;;;6.00;;
583;SDS011;27024;54.068;12.116;2023-02-28T07:33:42;10.85;;;5.40;;
583;SDS011;27024;54.068;12.116;2023-02-28T07:36:12;10.40;;;5.88;;
583;SDS011;27024;54.068;12.116;2023-02-28T07:43:39;12.25;;;5.68;;
583;SDS011;27024;54.068;12.116;2023-02-28T07:46:10;14.25;;;7.72;;
583;SDS011;27024;54.068;12.116;2023-02-28T07:48:41;14.38;;;6.90;;
583;SDS011;27024;54.068;12.116;2023-02-28T07:51:09;13.80;;;7.28;;
583;SDS011;27024;54.068;12.116;2023-02-28T07:53:36;15.32;;;7.40;;
583;SDS011;27024;54.068;12.116;2023-02-28T07:56:02;12.27;;;6.05;;
583;SDS011;27024;54.068;12.116;2023-02-28T07:58:30;8.95;;;5.72;;
583;SDS011;27024;54.068;12.116;2023-02-28T08:00:57;9.73;;;5.85;;
583;SDS011;27024;54.068;12.116;2023-02-28T08:03:32;13.10;;;6.60;;
583;SDS011;27024;54.068;12.116;2023-02-28T08:06:00;11.60;;;7.15;;
583;SDS011;27024;54.068;12.116;2023-02-28T08:08:28;11.38;;;5.32;;
583;SDS011;27024;54.068;12.116;2023-02-28T08:10:58;10.15;;;5.60;;
583;SDS011;27024;54.068;12.116;2023-02-28T08:13:29;11.50;;;5.85;;
583;SDS011;27024;54.068;12.116;2023-02-28T08:15:57;10.90;;;6.05;;
583;SDS011;27024;54.068;12.116;2023-02-28T08:18:24;8.70;;;5.22;;
583;SDS011;27024;54.068;12.116;2023-02-28T08:20:50;9.70;;;5.43;;
583;SDS011;27024;54.068;12.116;2023-02-28T08:23:17;12.85;;;5.40;;
583;SDS011;27024;54.068;12.116;2023-02-28T08:25:44;10.98;;;5.20;;
583;SDS011;27024;54.068;12.116;2023-02-28T08:28:18;9.45;;;5.18;;
583;SDS011;27024;54.068;12.116;2023-02-28T08:30:45;6.68;;;4.30;;
583;SDS011;27024;54.068;12.116;2023-02-28T08:33:12;8.30;;;4.43;;
583;SDS011;27024;54.068;12.116;2023-02-28T08:35:39;8.00;;;4.60;;
583;SDS011;27024;54.068;12.116;2023-02-28T08:38:05;9.20;;;4.53;;
583;SDS011;27024;54.068;12.116;2023-02-28T08:40:32;7.90;;;4.85;;
583;SDS011;27024;54.068;12.116;2023-02-28T08:43:00;10.27;;;4.70;;
583;SDS011;27024;54.068;12.116;2023-02-28T08:45:26;7.97;;;4.45;;
583;SDS011;27024;54.068;12.116;2023-02-28T08:47:54;8.02;;;4.72;;
583;SDS011;27024;54.068;12.116;2023-02-28T08:50:21;8.13;;;4.28;;
583;SDS011;27024;54.068;12.116;2023-02-28T08:52:49;7.35;;;4.53;;
583;SDS011;27024;54.068;12.116;2023-02-28T08:55:16;8.23;;;4.15;;
583;SDS011;27024;54.068;12.116;2023-02-28T08:57:43;8.63;;;3.88;;
583;SDS011;27024;54.068;12.116;2023-02-28T09:00:11;6.22;;;3.75;;
583;SDS011;27024;54.068;12.116;2023-02-28T09:02:40;7.82;;;3.83;;
583;SDS011;27024;54.068;12.116;2023-02-28T09:05:09;10.07;;;3.97;;
583;SDS011;27024;54.068;12.116;2023-02-28T09:07:36;6.72;;;3.75;;
583;SDS011;27024;54.068;12.116;2023-02-28T09:10:03;7.43;;;3.30;;
583;SDS011;27024;54.068;12.116;2023-02-28T09:12:32;7.43;;;3.17;;
583;SDS011;27024;54.068;12.116;2023-02-28T09:15:02;6.90;;;3.10;;
583;SDS011;27024;54.068;12.116;2023-02-28T09:17:29;7.80;;;3.17;;
583;SDS011;27024;54.068;12.116;2023-02-28T09:19:57;7.90;;;4.40;;
583;SDS011;27024;54.068;12.116;2023-02-28T09:22:24;7.15;;;3.55;;
583;SDS011;27024;54.068;12.116;2023-02-28T09:24:51;6.13;;;3.33;;
583;SDS011;27024;54.068;12.116;2023-02-28T09:27:18;6.18;;;2.85;;
583;SDS011;27024;54.068;12.116;2023-02-28T09:29:45;8.63;;;3.45;;
583;SDS011;27024;54.068;12.116;2023-02-28T09:32:12;6.85;;;3.05;;
583;SDS011;27024;54.068;12.116;2023-02-28T09:34:39;6.93;;;3.28;;
583;SDS011;27024;54.068;12.116;2023-02-28T09:37:06;6.18;;;2.78;;
583;SDS011;27024;54.068;12.116;2023-02-28T09:39:33;5.50;;;2.90;;
583;SDS011;27024;54.068;12.116;2023-02-28T09:41:59;7.75;;;3.20;;
583;SDS011;27024;54.068;12.116;2023-02-28T09:44:31;6.75;;;3.00;;
583;SDS011;27024;54.068;12.116;2023-02-28T09:47:19;7.15;;;3.08;;
583;SDS011;27024;54.068;12.116;2023-02-28T09:49:57;4.47;;;2.35;;
583;SDS011;27024;54.068;12.116;2023-02-28T09:52:30;6.43;;;2.58;;
583;SDS011;27024;54.068;12.116;2023-02-28T09:55:33;4.40;;;2.30;;
583;SDS011;27024;54.068;12.116;2023-02-28T09:58:15;5.80;;;2.45;;
583;SDS011;27024;54.068;12.116;2023-02-28T10:00:46;4.82;;;2.53;;
583;SDS011;27024;54.068;12.116;2023-02-28T10:06:26;8.48;;;2.55;;
583;SDS011;27024;54.068;12.116;2023-02-28T10:09:00;6.15;;;2.33;;
583;SDS011;27024;54.068;12.116;2023-02-28T10:11:36;5.28;;;2.45;;
583;SDS011;27024;54.068;12.116;2023-02-28T10:14:19;7.65;;;2.75;;
583;SDS011;27024;54.068;12.116;2023-02-28T10:16:55;6.28;;;2.60;;
583;SDS011;27024;54.068;12.116;2023-02-28T10:22:08;6.18;;;2.58;;
583;SDS011;27024;54.068;12.116;2023-02-28T10:24:42;7.60;;;2.25;;
583;SDS011;27024;54.068;12.116;2023-02-28T10:27:18;6.25;;;2.15;;
583;SDS011;27024;54.068;12.116;2023-02-28T10:29:55;6.00;;;2.08;;
583;SDS011;27024;54.068;12.116;2023-02-28T10:32:25;6.40;;;1.80;;
583;SDS011;27024;54.068;12.116;2023-02-28T10:37:32;4.68;;;1.85;;
583;SDS011;27024;54.068;12.116;2023-02-28T10:40:05;5.32;;;2.05;;
583;SDS011;27024;54.068;12.116;2023-02-28T10:42:34;5.47;;;1.80;;
583;SDS011;27024;54.068;12.116;2023-02-28T10:45:06;5.15;;;1.92;;
583;SDS011;27024;54.068;12.116;2023-02-28T10:47:40;4.28;;;2.17;;
583;SDS011;27024;54.068;12.116;2023-02-28T10:50:31;5.75;;;1.73;;
583;SDS011;27024;54.068;12.116;2023-02-28T11:01:40;3.92;;;1.75;;
583;SDS011;27024;54.068;12.116;2023-02-28T11:06:56;4.93;;;1.52;;
583;SDS011;27024;54.068;12.116;2023-02-28T11:09:28;3.67;;;1.30;;
583;SDS011;27024;54.068;12.116;2023-02-28T11:12:00;4.03;;;1.50;;
583;SDS011;27024;54.068;12.116;2023-02-28T11:14:28;4.25;;;1.25;;
583;SDS011;27024;54.068;12.116;2023-02-28T11:17:20;4.53;;;1.02;;
583;SDS011;27024;54.068;12.116;2023-02-28T11:19:56;5.47;;;1.33;;
583;SDS011;27024;54.068;12.116;2023-02-28T11:22:28;3.22;;;0.95;;
583;SDS011;27024;54.068;12.116;2023-02-28T11:24:59;3.67;;;1.15;;
583;SDS011;27024;54.068;12.116;2023-02-28T11:29:56;1.63;;;0.50;;
583;SDS011;27024;54.068;12.116;2023-02-28T11:32:26;4.72;;;1.20;;
583;SDS011;27024;54.068;12.116;2023-02-28T11:35:03;6.72;;;1.98;;
583;SDS011;27024;54.068;12.116;2023-02-28T11:37:36;4.78;;;1.42;;
583;SDS011;27024;54.068;12.116;2023-02-28T11:40:15;5.35;;;1.83;;
583;SDS011;27024;54.068;12.116;2023-02-28T11:47:48;3.92;;;1.58;;
583;SDS011;27024;54.068;12.116;2023-02-28T11:53:05;4.53;;;1.63;;
583;SDS011;27024;54.068;12.116;2023-02-28T11:55:45;4.50;;;1.63;;
583;SDS011;27024;54.068;12.116;2023-02-28T12:03:54;5.80;;;1.63;;
583;SDS011;27024;54.068;12.116;2023-02-28T12:06:45;4.75;;;1.25;;
583;SDS011;27024;54.068;12.116;2023-02-28T12:12:24;4.43;;;1.65;;
583;SDS011;27024;54.068;12.116;2023-02-28T12:15:18;3.70;;;1.20;;
583;SDS011;27024;54.068;12.116;2023-02-28T12:23:21;3.45;;;0.95;;
583;SDS011;27024;54.068;12.116;2023-02-28T12:26:02;4.15;;;1.27;;
583;SDS011;27024;54.068;12.116;2023-02-28T12:28:40;5.70;;;1.30;;
583;SDS011;27024;54.068;12.116;2023-02-28T12:31:20;4.03;;;1.15;;
583;SDS011;27024;54.068;12.116;2023-02-28T12:33:52;3.85;;;1.00;;
583;SDS011;27024;54.068;12.116;2023-02-28T12:36:22;3.67;;;1.25;;
583;SDS011;27024;54.068;12.116;2023-02-28T12:41:26;5.43;;;1.10;;
583;SDS011;27024;54.068;12.116;2023-02-28T12:46:54;4.20;;;1.05;;
583;SDS011;27024;54.068;12.116;2023-02-28T12:49:35;4.10;;;1.30;;
583;SDS011;27024;54.068;12.116;2023-02-28T12:52:07;4.07;;;1.33;;
583;SDS011;27024;54.068;12.116;2023-02-28T12:54:42;2.97;;;1.05;;
583;SDS011;27024;54.068;12.116;2023-02-28T13:00:03;4.18;;;1.17;;
583;SDS011;27024;54.068;12.116;2023-02-28T13:08:10;5.78;;;1.40;;
583;SDS011;27024;54.068;12.116;2023-02-28T13:10:54;4.55;;;0.95;;
583;SDS011;27024;54.068;12.116;2023-02-28T13:13:22;2.80;;;1.17;;
583;SDS011;27024;54.068;12.116;2023-02-28T13:16:03;3.53;;;1.48;;
583;SDS011;27024;54.068;12.116;2023-02-28T13:21:04;2.92;;;1.30;;
583;SDS011;27024;54.068;12.116;2023-02-28T13:26:13;3.83;;;0.80;;
583;SDS011;27024;54.068;12.116;2023-02-28T13:28:58;5.28;;;1.05;;
583;SDS011;27024;54.068;12.116;2023-02-28T13:31:30;3.28;;;0.82;;
583;SDS011;27024;54.068;12.116;2023-02-28T13:34:13;4.63;;;0.80;;
583;SDS011;27024;54.068;12.116;2023-02-28T13:36:42;5.28;;;0.90;;
583;SDS011;27024;54.068;12.116;2023-02-28T13:47:36;3.10;;;0.75;;
583;SDS011;27024;54.068;12.116;2023-02-28T13:53:17;3.67;;;1.15;;
583;SDS011;27024;54.068;12.116;2023-02-28T14:05:04;2.95;;;0.77;;
583;SDS011;27024;54.068;12.116;2023-02-28T14:07:40;2.60;;;0.70;;
583;SDS011;27024;54.068;12.116;2023-02-28T14:10:19;2.83;;;0.70;;
583;SDS011;27024;54.068;12.116;2023-02-28T14:18:00;1.95;;;0.47;;
583;SDS011;27024;54.068;12.116;2023-02-28T14:20:30;1.20;;;0.43;;
583;SDS011;27024;54.068;12.116;2023-02-28T14:23:04;1.88;;;0.52;;
583;SDS011;27024;54.068;12.116;2023-02-28T14:25:42;2.30;;;0.50;;
583;SDS011;27024;54.068;12.116;2023-02-28T14:30:52;5.32;;;0.82;;
583;SDS011;27024;54.068;12.116;2023-02-28T14:33:45;2.35;;;0.50;;
583;SDS011;27024;54.068;12.116;2023-02-28T14:36:35;2.45;;;0.50;;
583;SDS011;27024;54.068;12.116;2023-02-28T14:39:16;2.67;;;0.60;;
583;SDS011;27024;54.068;12.116;2023-02-28T14:41:47;2.15;;;0.75;;
583;SDS011;27024;54.068;12.116;2023-02-28T14:44:24;2.17;;;0.65;;
583;SDS011;27024;54.068;12.116;2023-02-28T14:46:53;1.98;;;0.50;;
583;SDS011;27024;54.068;12.116;2023-02-28T14:49:42;1.85;;;0.40;;
583;SDS011;27024;54.068;12.116;2023-02-28T14:52:22;1.90;;;0.60;;
583;SDS011;27024;54.068;12.116;2023-02-28T14:54:54;2.50;;;0.73;;
583;SDS011;27024;54.068;12.116;2023-02-28T14:57:30;2.50;;;0.40;;
583;SDS011;27024;54.068;12.116;2023-02-28T15:00:00;1.42;;;0.52;;
583;SDS011;27024;54.068;12.116;2023-02-28T15:02:47;2.15;;;0.52;;
583;SDS011;27024;54.068;12.116;2023-02-28T15:07:44;2.72;;;0.50;;
583;SDS011;27024;54.068;12.116;2023-02-28T15:12:51;2.28;;;0.70;;
583;SDS011;27024;54.068;12.116;2023-02-28T15:15:27;4.10;;;0.63;;
583;SDS011;27024;54.068;12.116;2023-02-28T15:18:43;3.40;;;0.82;;
583;SDS011;27024;54.068;12.116;2023-02-28T15:21:50;3.60;;;0.50;;
583;SDS011;27024;54.068;12.116;2023-02-28T15:24:16;3.28;;;0.80;;
583;SDS011;27024;54.068;12.116;2023-02-28T15:26:59;2.13;;;0.50;;
583;SDS011;27024;54.068;12.116;2023-02-28T15:29:34;1.90;;;0.43;;
583;SDS011;27024;54.068;12.116;2023-02-28T15:32:20;2.53;;;0.68;;
583;SDS011;27024;54.068;12.116;2023-02-28T15:34:51;2.42;;;0.70;;
583;SDS011;27024;54.068;12.116;2023-02-28T15:42:41;2.78;;;0.52;;
583;SDS011;27024;54.068;12.116;2023-02-28T15:45:32;2.85;;;0.68;;
583;SDS011;27024;54.068;12.116;2023-02-28T15:48:05;2.38;;;0.68;;
583;SDS011;27024;54.068;12.116;2023-02-28T15:50:40;2.03;;;0.50;;
583;SDS011;27024;54.068;12.116;2023-02-28T15:53:12;4.63;;;0.60;;
583;SDS011;27024;54.068;12.116;2023-02-28T15:55:41;4.82;;;0.60;;
583;SDS011;27024;54.068;12.116;2023-02-28T15:58:08;2.33;;;0.52;;
583;SDS011;27024;54.068;12.116;2023-02-28T16:00:39;2.35;;;0.40;;
583;SDS011;27024;54.068;12.116;2023-02-28T16:03:25;1.88;;;0.52;;
583;SDS011;27024;54.068;12.116;2023-02-28T16:08:48;3.47;;;0.70;;
583;SDS011;27024;54.068;12.116;2023-02-28T16:11:17;3.15;;;0.63;;
583;SDS011;27024;54.068;12.116;2023-02-28T16:13:46;5.28;;;1.25;;
583;SDS011;27024;54.068;12.116;2023-02-28T16:16:17;1.15;;;0.28;;
583;SDS011;27024;54.068;12.116;2023-02-28T16:18:48;2.00;;;0.65;;
583;SDS011;27024;54.068;12.116;2023-02-28T16:21:15;2.67;;;0.52;;
583;SDS011;27024;54.068;12.116;2023-02-28T16:23:43;2.33;;;0.57;;
583;SDS011;27024;54.068;12.116;2023-02-28T16:26:15;3.35;;;1.23;;
583;SDS011;27024;54.068;12.116;2023-02-28T16:28:47;2.08;;;0.50;;
583;SDS011;27024;54.068;12.116;2023-02-28T16:31:13;3.03;;;1.10;;
583;SDS011;27024;54.068;12.116;2023-02-28T16:33:44;1.85;;;0.80;;
583;SDS011;27024;54.068;12.116;2023-02-28T16:36:15;2.50;;;0.47;;
583;SDS011;27024;54.068;12.116;2023-02-28T16:38:45;3.75;;;0.50;;
583;SDS011;27024;54.068;12.116;2023-02-28T16:41:13;2.17;;;0.60;;
583;SDS011;27024;54.068;12.116;2023-02-28T16:43:48;3.35;;;0.60;;
583;SDS011;27024;54.068;12.116;2023-02-28T16:46:17;2.45;;;0.40;;
583;SDS011;27024;54.068;12.116;2023-02-28T16:48:46;3.20;;;0.60;;
583;SDS011;27024;54.068;12.116;2023-02-28T16:51:18;2.38;;;0.50;;
583;SDS011;27024;54.068;12.116;2023-02-28T16:53:45;2.92;;;0.40;;
583;SDS011;27024;54.068;12.116;2023-02-28T16:56:17;5.10;;;0.40;;
583;SDS011;27024;54.068;12.116;2023-02-28T16:58:46;2.53;;;0.50;;
583;SDS011;27024;54.068;12.116;2023-02-28T17:01:15;1.60;;;0.47;;
583;SDS011;27024;54.068;12.116;2023-02-28T17:03:43;1.45;;;0.45;;
583;SDS011;27024;54.068;12.116;2023-02-28T17:06:20;3.33;;;0.65;;
583;SDS011;27024;54.068;12.116;2023-02-28T17:08:55;3.92;;;0.73;;
583;SDS011;27024;54.068;12.116;2023-02-28T17:11:23;5.00;;;0.80;;
583;SDS011;27024;54.068;12.116;2023-02-28T17:13:52;3.75;;;0.90;;
583;SDS011;27024;54.068;12.116;2023-02-28T17:16:30;4.68;;;0.88;;
583;SDS011;27024;54.068;12.116;2023-02-28T17:19:01;4.63;;;0.88;;
583;SDS011;27024;54.068;12.116;2023-02-28T17:21:30;4.50;;;1.10;;
583;SDS011;27024;54.068;12.116;2023-02-28T17:23:58;4.97;;;1.05;;
583;SDS011;27024;54.068;12.116;2023-02-28T17:26:26;7.30;;;0.82;;
583;SDS011;27024;54.068;12.116;2023-02-28T17:28:55;3.72;;;0.73;;
583;SDS011;27024;54.068;12.116;2023-02-28T17:31:23;2.78;;;0.70;;
583;SDS011;27024;54.068;12.116;2023-02-28T17:33:51;4.35;;;0.63;;
583;SDS011;27024;54.068;12.116;2023-02-28T17:36:23;5.00;;;1.10;;
583;SDS011;27024;54.068;12.116;2023-02-28T17:38:52;2.60;;;0.60;;
583;SDS011;27024;54.068;12.116;2023-02-28T17:41:21;2.90;;;0.85;;
583;SDS011;27024;54.068;12.116;2023-02-28T17:43:49;2.60;;;0.52;;
583;SDS011;27024;54.068;12.116;2023-02-28T17:46:20;4.32;;;0.90;;
583;SDS011;27024;54.068;12.116;2023-02-28T17:48:51;5.10;;;0.75;;
583;SDS011;27024;54.068;12.116;2023-02-28T17:51:19;2.97;;;0.93;;
583;SDS011;27024;54.068;12.116;2023-02-28T17:53:47;4.93;;;0.98;;
583;SDS011;27024;54.068;12.116;2023-02-28T17:56:16;2.17;;;0.55;;
583;SDS011;27024;54.068;12.116;2023-02-28T17:58:46;4.82;;;0.80;;
583;SDS011;27024;54.068;12.116;2023-02-28T18:01:13;4.43;;;0.80;;